createdAt,value
2017-05-10T07:26:53.973Z,22.46
2017-05-10T07:27:55.406Z,22.41
2017-05-10T07:28:56.873Z,22.46
2017-05-10T07:29:58.432Z,22.52
2017-05-10T07:31:00.171Z,22.62
2017-05-10T07:32:01.599Z,22.62
2017-05-10T07:33:03.073Z,22.65
2017-05-10T07:34:04.509Z,22.64
2017-05-10T07:35:06.127Z,22.60
2017-05-10T07:36:07.575Z,22.65
2017-05-10T07:37:09.067Z,22.78
2017-05-10T07:38:10.531Z,22.74
2017-05-10T07:39:12.136Z,22.82
2017-05-10T07:40:14.058Z,22.87
2017-05-10T07:41:15.610Z,22.87
2017-05-10T07:42:17.242Z,22.90
2017-05-10T07:43:18.690Z,23.05
2017-05-10T07:44:20.067Z,23.04
2017-05-10T07:45:21.503Z,23.04
2017-05-10T07:46:24.049Z,23.01
2017-05-10T07:47:25.500Z,23.17
2017-05-10T07:48:26.974Z,23.04
2017-05-10T07:49:28.562Z,23.14
2017-05-10T07:50:29.886Z,23.19
2017-05-10T07:51:31.331Z,23.24
2017-05-10T07:52:32.771Z,23.19
2017-05-10T07:53:34.206Z,23.39
2017-05-10T07:54:35.638Z,23.38
2017-05-10T07:55:37.171Z,23.46
2017-05-10T07:56:38.737Z,23.49
2017-05-10T07:57:40.221Z,23.52
2017-05-10T07:58:41.667Z,23.57
2017-05-10T07:59:43.109Z,23.65
2017-05-10T08:00:44.606Z,23.72
2017-05-10T08:01:46.077Z,23.79
2017-05-10T08:02:47.523Z,23.82
2017-05-10T08:03:49.009Z,24.01
2017-05-10T08:04:50.456Z,24.05
2017-05-10T08:05:51.912Z,24.01
2017-05-10T08:06:53.401Z,24.05
2017-05-10T08:07:54.912Z,24.16
2017-05-10T08:08:56.363Z,24.13
2017-05-10T08:09:57.909Z,24.16
2017-05-10T08:10:59.359Z,24.22
2017-05-10T08:12:00.795Z,24.27
2017-05-10T08:13:02.233Z,24.29
2017-05-10T08:14:03.668Z,24.29
2017-05-10T08:15:05.107Z,24.35
2017-05-10T08:16:06.764Z,24.45
2017-05-10T08:17:08.207Z,24.49
2017-05-10T08:18:09.643Z,24.56
2017-05-10T08:19:11.089Z,24.49
2017-05-10T08:20:12.523Z,24.52
2017-05-10T08:21:13.971Z,24.52
2017-05-10T08:22:15.406Z,24.42
2017-05-10T08:23:16.844Z,24.44
2017-05-10T08:24:18.317Z,24.49
2017-05-10T08:25:19.750Z,24.52
2017-05-10T08:26:21.188Z,24.49
2017-05-10T08:27:22.662Z,24.41
2017-05-10T08:28:24.098Z,24.35
2017-05-10T08:29:25.532Z,24.39
2017-05-10T08:30:27.032Z,24.31
2017-05-10T08:31:29.405Z,24.29
2017-05-10T08:32:30.994Z,24.23
2017-05-10T08:33:32.430Z,24.27
2017-05-10T08:34:33.872Z,24.31
2017-05-10T08:35:35.349Z,24.32
2017-05-10T08:36:37.006Z,24.32
2017-05-10T08:37:38.609Z,24.24
2017-05-10T08:38:40.124Z,24.17
2017-05-10T08:39:41.569Z,24.23
2017-05-10T08:40:43.111Z,24.17
2017-05-10T08:41:44.583Z,24.14
2017-05-10T08:42:46.159Z,24.19
2017-05-10T08:43:47.836Z,24.34
2017-05-10T08:44:49.428Z,24.34
2017-05-10T08:45:51.069Z,24.39
2017-05-10T08:46:52.518Z,24.44
2017-05-10T08:47:53.964Z,24.42
2017-05-10T08:48:55.402Z,24.45
2017-05-10T08:49:56.980Z,24.49
2017-05-10T08:50:58.541Z,24.50
2017-05-10T08:52:00.056Z,24.61
2017-05-10T08:53:01.600Z,24.61
2017-05-10T08:54:03.089Z,24.76
2017-05-10T08:55:04.528Z,24.77
2017-05-10T08:56:05.964Z,24.73
2017-05-10T08:57:07.422Z,24.69
2017-05-10T08:58:08.869Z,24.67
2017-05-10T08:59:10.461Z,24.64
2017-05-10T09:00:11.918Z,24.71
2017-05-10T09:01:13.405Z,24.68
2017-05-10T09:02:14.965Z,24.64
2017-05-10T09:03:16.408Z,24.85
2017-05-10T09:04:17.846Z,24.77
2017-05-10T09:05:19.283Z,24.88
2017-05-10T09:06:20.723Z,24.82
2017-05-10T09:07:22.162Z,24.85
2017-05-10T09:08:23.596Z,24.85
2017-05-10T09:09:25.031Z,24.87
2017-05-10T09:10:27.310Z,24.97
2017-05-10T09:11:28.788Z,24.83
2017-05-10T09:12:30.254Z,24.88
2017-05-10T09:13:31.693Z,24.97
2017-05-10T09:14:33.123Z,25.00
2017-05-10T09:15:35.552Z,25.02
2017-05-10T09:16:36.870Z,25.01
2017-05-10T09:17:38.325Z,25.01
2017-05-10T09:18:39.788Z,25.09
2017-05-10T09:19:41.255Z,25.20
2017-05-10T09:20:42.782Z,25.12
2017-05-10T09:21:44.299Z,25.20
2017-05-10T09:22:45.735Z,25.25
2017-05-10T09:23:47.189Z,25.19
2017-05-10T09:24:48.726Z,25.12
2017-05-10T09:25:50.200Z,25.27
2017-05-10T09:26:51.641Z,25.28
2017-05-10T09:27:53.082Z,25.25
2017-05-10T09:28:54.521Z,25.20
2017-05-10T09:29:55.967Z,25.24
2017-05-10T09:30:57.405Z,25.28
2017-05-10T09:31:58.841Z,25.34
2017-05-10T09:33:00.281Z,25.37
2017-05-10T09:34:01.715Z,25.38
2017-05-10T09:35:03.167Z,25.24
2017-05-10T09:36:04.606Z,25.37
2017-05-10T09:37:06.049Z,25.24
2017-05-10T09:38:07.511Z,25.34
2017-05-10T09:39:08.987Z,25.35
2017-05-10T09:40:10.475Z,25.24
2017-05-10T09:41:11.946Z,25.28
2017-05-10T09:42:13.417Z,25.34
2017-05-10T09:43:14.888Z,25.44
2017-05-10T09:44:16.657Z,25.49
2017-05-10T09:45:18.090Z,25.39
2017-05-10T09:46:19.564Z,25.37
2017-05-10T09:47:21.089Z,25.35
2017-05-10T09:48:23.342Z,25.39
2017-05-10T09:49:24.811Z,25.37
2017-05-10T09:50:26.414Z,25.32
2017-05-10T09:51:28.119Z,25.35
2017-05-10T09:52:29.747Z,25.35
2017-05-10T09:53:31.443Z,25.43
2017-05-10T09:54:33.325Z,25.35
2017-05-10T09:55:35.417Z,25.32
2017-05-10T09:56:36.864Z,25.38
2017-05-10T09:57:38.297Z,25.39
2017-05-10T09:58:39.794Z,25.42
2017-05-10T09:59:41.225Z,25.39
2017-05-10T10:00:42.716Z,25.34
2017-05-10T10:01:44.160Z,25.35
2017-05-10T10:02:45.621Z,25.42
2017-05-10T10:03:47.087Z,25.44
2017-05-10T10:04:48.540Z,25.37
2017-05-10T10:05:49.989Z,25.46
2017-05-10T10:06:51.461Z,25.47
2017-05-10T10:07:52.902Z,25.38
2017-05-10T10:08:54.429Z,25.43
2017-05-10T10:09:55.870Z,25.38
2017-05-10T10:10:57.311Z,25.37
2017-05-10T10:11:58.749Z,25.44
2017-05-10T10:13:00.188Z,25.39
2017-05-10T10:14:02.283Z,25.35
2017-05-10T10:15:03.845Z,25.46
2017-05-10T10:16:05.705Z,25.50
2017-05-10T10:17:07.134Z,25.62
2017-05-10T10:18:08.621Z,25.64
2017-05-10T10:19:10.109Z,25.69
2017-05-10T10:20:11.664Z,25.71
2017-05-10T10:21:13.127Z,25.64
2017-05-10T10:22:14.557Z,25.67
2017-05-10T10:23:15.990Z,25.57
2017-05-10T10:24:17.435Z,25.57
2017-05-10T10:25:18.941Z,25.62
2017-05-10T10:26:20.384Z,25.50
